Photometre #44[NE_1.6] Rome_La_Sapienza AOT

File : 20221124_44.hum

24/11/2022,07:07:02,TEMP=11.5,BA=5.68,STAT.A=7.0,ExtBa=13.34
24/11/2022,07:11:21,TEMP=11.7,BA=5.68,STAT.A=7.0,ExtBa=13.34
24/11/2022,07:16:26,TEMP=11.8,BA=5.68,STAT.A=7.0,ExtBa=13.34
24/11/2022,07:22:34,TEMP=11.9,BA=5.68,STAT.A=7.0,ExtBa=13.34
24/11/2022,07:30:05,TEMP=12.1,BA=5.64,STAT.A=7.0,ExtBa=13.34
24/11/2022,07:39:32,TEMP=12.3,BA=5.64,STAT.A=7.0,ExtBa=13.34
24/11/2022,07:51:51,TEMP=12.7,BA=5.68,STAT.B=7.0,ExtBa=13.34
24/11/2022,07:56:54,TEMP=12.9,BA=5.68,STAT.F,ExtBa=13.31
24/11/2022,08:11:53,TEMP=13.2,BA=5.68,STAT.D=7.0,ExtBa=13.34
24/11/2022,08:26:53,TEMP=13.7,BA=5.68,STAT.D=7.0,ExtBa=13.34
24/11/2022,08:41:53,TEMP=14.9,BA=5.68,STAT.D=7.0,ExtBa=13.34
24/11/2022,08:56:55,TEMP=15.4,BA=5.68,STAT.F,ExtBa=13.32
24/11/2022,09:11:53,TEMP=15.6,BA=5.64,STAT.D=7.0,ExtBa=13.18
24/11/2022,09:26:53,TEMP=15.5,BA=5.68,STAT.D=7.0,ExtBa=13.44
24/11/2022,09:41:53,TEMP=15.9,BA=5.68,STAT.D=7.0,ExtBa=13.50
24/11/2022,09:56:55,TEMP=17.0,BA=5.68,STAT.F,ExtBa=13.48
24/11/2022,10:15:30,TEMP=18.7,BA=5.56,STAT.D=7.0,ExtBa=13.08
24/11/2022,10:26:53,TEMP=19.6,BA=5.68,STAT.D=7.0,ExtBa=13.37
24/11/2022,10:41:53,TEMP=20.5,BA=5.68,STAT.D=7.0,ExtBa=13.46
24/11/2022,10:56:55,TEMP=20.0,BA=5.68,STAT.F,ExtBa=13.49
24/11/2022,11:11:53,TEMP=19.0,BA=5.52,STAT.D=8.0,ExtBa=13.15
24/11/2022,11:26:53,TEMP=18.9,BA=5.52,STAT.D=8.0,ExtBa=12.97
24/11/2022,11:41:53,TEMP=19.5,BA=5.52,STAT.D=8.0,ExtBa=12.92
24/11/2022,11:56:55,TEMP=22.0,BA=5.52,STAT.F,ExtBa=12.91
24/11/2022,12:14:48,TEMP=21.6,BA=5.44,STAT.D=8.0,ExtBa=12.72
24/11/2022,12:26:53,TEMP=21.2,BA=5.48,STAT.D=8.0,ExtBa=13.12
24/11/2022,12:41:53,TEMP=21.8,BA=5.68,STAT.D=8.0,ExtBa=13.33
24/11/2022,13:15:11,TEMP=20.6,BA=5.52,STAT.b=8.0
24/11/2022,13:26:52,TEMP=20.2,BA=5.68,STAT.D=8.0,ExtBa=13.28
24/11/2022,13:41:53,TEMP=20.9,BA=5.68,STAT.D=8.0,ExtBa=13.36
24/11/2022,13:56:54,TEMP=20.9,BA=5.68,STAT.F,ExtBa=13.39
24/11/2022,14:11:03,TEMP=21.3,BA=5.52,STAT.b=8.0
24/11/2022,14:11:55,TEMP=21.4,BA=5.52,STAT.B=8.0,ExtBa=12.96
24/11/2022,14:26:49,TEMP=20.6,BA=5.48,STAT.A=8.0,ExtBa=12.86
24/11/2022,14:29:06,TEMP=20.7,BA=5.48,STAT.A=8.0,ExtBa=12.87
24/11/2022,14:31:16,TEMP=20.8,BA=5.48,STAT.A=8.0,ExtBa=12.90
24/11/2022,14:37:22,TEMP=20.6,BA=5.48,STAT.A=8.0,ExtBa=13.09
24/11/2022,14:42:27,TEMP=20.5,BA=5.64,STAT.A=8.0,ExtBa=13.17
24/11/2022,14:46:46,TEMP=20.1,BA=5.64,STAT.A=8.0,ExtBa=13.20